sensor_id;sensor_type;location;lat;lon;timestamp;temperature;humidity
21582;DHT22;10952;50.836;4.348;2023-05-10T00:01:25;14.70;99.90
21582;DHT22;10952;50.836;4.348;2023-05-10T00:03:51;14.70;99.90
21582;DHT22;10952;50.836;4.348;2023-05-10T00:06:17;14.70;99.90
21582;DHT22;10952;50.836;4.348;2023-05-10T00:08:43;14.70;99.90
21582;DHT22;10952;50.836;4.348;2023-05-10T00:11:09;14.80;99.90
21582;DHT22;10952;50.836;4.348;2023-05-10T00:13:34;14.80;99.90
21582;DHT22;10952;50.836;4.348;2023-05-10T00:16:00;14.80;99.90
21582;DHT22;10952;50.836;4.348;2023-05-10T00:18:25;14.80;99.90
21582;DHT22;10952;50.836;4.348;2023-05-10T00:20:51;14.80;99.90
21582;DHT22;10952;50.836;4.348;2023-05-10T00:23:17;14.80;99.90
21582;DHT22;10952;50.836;4.348;2023-05-10T00:25:42;14.90;99.90
21582;DHT22;10952;50.836;4.348;2023-05-10T00:28:08;14.70;99.90
21582;DHT22;10952;50.836;4.348;2023-05-10T00:30:34;14.60;99.90
21582;DHT22;10952;50.836;4.348;2023-05-10T00:33:00;14.60;99.90
21582;DHT22;10952;50.836;4.348;2023-05-10T00:35:25;14.60;99.90
21582;DHT22;10952;50.836;4.348;2023-05-10T00:37:51;14.70;99.90
21582;DHT22;10952;50.836;4.348;2023-05-10T00:40:17;14.70;99.90
21582;DHT22;10952;50.836;4.348;2023-05-10T00:42:42;14.70;99.90
21582;DHT22;10952;50.836;4.348;2023-05-10T00:45:08;14.80;99.90
21582;DHT22;10952;50.836;4.348;2023-05-10T00:47:34;14.70;99.90
21582;DHT22;10952;50.836;4.348;2023-05-10T00:50:00;14.70;99.90
21582;DHT22;10952;50.836;4.348;2023-05-10T00:52:28;14.70;99.90
21582;DHT22;10952;50.836;4.348;2023-05-10T00:54:54;14.70;99.90
21582;DHT22;10952;50.836;4.348;2023-05-10T00:57:21;14.80;99.90
21582;DHT22;10952;50.836;4.348;2023-05-10T00:59:46;14.80;99.90
21582;DHT22;10952;50.836;4.348;2023-05-10T01:02:13;14.70;99.90
21582;DHT22;10952;50.836;4.348;2023-05-10T01:04:39;14.50;99.90
21582;DHT22;10952;50.836;4.348;2023-05-10T01:07:05;14.50;99.90
21582;DHT22;10952;50.836;4.348;2023-05-10T01:09:31;14.60;99.90
21582;DHT22;10952;50.836;4.348;2023-05-10T01:11:56;14.60;99.90
21582;DHT22;10952;50.836;4.348;2023-05-10T01:14:23;14.70;99.90
21582;DHT22;10952;50.836;4.348;2023-05-10T01:16:49;14.90;99.90
21582;DHT22;10952;50.836;4.348;2023-05-10T01:19:26;14.80;99.90
21582;DHT22;10952;50.836;4.348;2023-05-10T01:22:24;14.80;99.90
21582;DHT22;10952;50.836;4.348;2023-05-10T01:43:54;14.70;99.90
21582;DHT22;10952;50.836;4.348;2023-05-10T01:46:28;14.60;99.90
21582;DHT22;10952;50.836;4.348;2023-05-10T01:48:59;14.60;99.90
21582;DHT22;10952;50.836;4.348;2023-05-10T01:51:30;14.70;99.90
21582;DHT22;10952;50.836;4.348;2023-05-10T01:54:01;14.70;99.90
21582;DHT22;10952;50.836;4.348;2023-05-10T01:56:30;14.60;99.90
21582;DHT22;10952;50.836;4.348;2023-05-10T01:58:58;14.60;99.90
21582;DHT22;10952;50.836;4.348;2023-05-10T02:01:26;14.70;99.90
21582;DHT22;10952;50.836;4.348;2023-05-10T02:03:53;14.70;99.90
21582;DHT22;10952;50.836;4.348;2023-05-10T02:06:22;14.70;99.90
21582;DHT22;10952;50.836;4.348;2023-05-10T02:08:50;14.60;99.90
21582;DHT22;10952;50.836;4.348;2023-05-10T02:11:17;14.70;99.90
21582;DHT22;10952;50.836;4.348;2023-05-10T02:13:44;14.70;99.90
21582;DHT22;10952;50.836;4.348;2023-05-10T02:16:13;14.80;99.90
21582;DHT22;10952;50.836;4.348;2023-05-10T02:18:41;14.80;99.90
21582;DHT22;10952;50.836;4.348;2023-05-10T02:21:08;14.70;99.90
21582;DHT22;10952;50.836;4.348;2023-05-10T02:23:34;14.70;99.90
21582;DHT22;10952;50.836;4.348;2023-05-10T02:26:01;14.70;99.90
21582;DHT22;10952;50.836;4.348;2023-05-10T02:28:28;14.60;99.90
21582;DHT22;10952;50.836;4.348;2023-05-10T02:30:55;14.50;99.90
21582;DHT22;10952;50.836;4.348;2023-05-10T02:33:22;14.50;99.90
21582;DHT22;10952;50.836;4.348;2023-05-10T02:35:48;14.60;99.90
21582;DHT22;10952;50.836;4.348;2023-05-10T02:38:15;14.60;99.90
21582;DHT22;10952;50.836;4.348;2023-05-10T02:40:43;14.50;99.90
21582;DHT22;10952;50.836;4.348;2023-05-10T02:43:13;14.60;99.90
21582;DHT22;10952;50.836;4.348;2023-05-10T02:45:42;14.60;99.90
21582;DHT22;10952;50.836;4.348;2023-05-10T02:48:08;14.60;99.90
21582;DHT22;10952;50.836;4.348;2023-05-10T02:50:35;14.60;99.90
21582;DHT22;10952;50.836;4.348;2023-05-10T02:53:09;14.60;99.90
21582;DHT22;10952;50.836;4.348;2023-05-10T02:55:38;14.50;99.90
21582;DHT22;10952;50.836;4.348;2023-05-10T02:58:05;14.40;99.90
21582;DHT22;10952;50.836;4.348;2023-05-10T03:00:31;14.30;99.90
21582;DHT22;10952;50.836;4.348;2023-05-10T03:02:57;14.30;99.90
21582;DHT22;10952;50.836;4.348;2023-05-10T03:05:23;14.40;99.90
21582;DHT22;10952;50.836;4.348;2023-05-10T03:07:49;14.40;99.90
21582;DHT22;10952;50.836;4.348;2023-05-10T03:10:17;14.50;99.90
21582;DHT22;10952;50.836;4.348;2023-05-10T03:17:53;14.50;99.90
21582;DHT22;10952;50.836;4.348;2023-05-10T03:20:26;14.50;99.90
21582;DHT22;10952;50.836;4.348;2023-05-10T03:23:22;14.30;99.90
21582;DHT22;10952;50.836;4.348;2023-05-10T03:25:49;14.30;99.90
21582;DHT22;10952;50.836;4.348;2023-05-10T03:28:17;14.30;99.90
21582;DHT22;10952;50.836;4.348;2023-05-10T03:30:43;14.20;99.90
21582;DHT22;10952;50.836;4.348;2023-05-10T03:33:10;14.20;99.90
21582;DHT22;10952;50.836;4.348;2023-05-10T03:35:36;14.20;99.90
21582;DHT22;10952;50.836;4.348;2023-05-10T03:38:02;14.20;99.90
21582;DHT22;10952;50.836;4.348;2023-05-10T03:40:28;14.10;99.90
21582;DHT22;10952;50.836;4.348;2023-05-10T03:42:56;14.10;99.90
21582;DHT22;10952;50.836;4.348;2023-05-10T03:45:22;14.10;99.90
21582;DHT22;10952;50.836;4.348;2023-05-10T03:47:48;13.90;99.90
21582;DHT22;10952;50.836;4.348;2023-05-10T03:50:13;13.90;99.90
21582;DHT22;10952;50.836;4.348;2023-05-10T03:52:39;14.00;99.90
21582;DHT22;10952;50.836;4.348;2023-05-10T03:55:05;14.00;99.90
21582;DHT22;10952;50.836;4.348;2023-05-10T03:57:31;14.00;99.90
21582;DHT22;10952;50.836;4.348;2023-05-10T03:59:57;14.10;99.90
21582;DHT22;10952;50.836;4.348;2023-05-10T04:02:23;14.20;99.90
21582;DHT22;10952;50.836;4.348;2023-05-10T04:04:48;14.10;99.90
21582;DHT22;10952;50.836;4.348;2023-05-10T04:07:14;14.20;99.90
21582;DHT22;10952;50.836;4.348;2023-05-10T04:09:40;14.20;99.90
21582;DHT22;10952;50.836;4.348;2023-05-10T04:12:06;14.10;99.90
21582;DHT22;10952;50.836;4.348;2023-05-10T04:14:32;14.10;99.90
21582;DHT22;10952;50.836;4.348;2023-05-10T04:16:57;14.10;99.90
21582;DHT22;10952;50.836;4.348;2023-05-10T04:19:23;14.10;99.90
21582;DHT22;10952;50.836;4.348;2023-05-10T04:21:49;14.00;99.90
21582;DHT22;10952;50.836;4.348;2023-05-10T04:24:14;14.00;99.90
21582;DHT22;10952;50.836;4.348;2023-05-10T04:26:40;13.90;99.90
21582;DHT22;10952;50.836;4.348;2023-05-10T04:29:06;13.90;99.90
21582;DHT22;10952;50.836;4.348;2023-05-10T04:31:32;14.00;99.90
21582;DHT22;10952;50.836;4.348;2023-05-10T04:33:57;14.10;99.90
21582;DHT22;10952;50.836;4.348;2023-05-10T04:36:23;14.20;99.90
21582;DHT22;10952;50.836;4.348;2023-05-10T04:38:49;14.20;99.90
21582;DHT22;10952;50.836;4.348;2023-05-10T04:41:14;14.20;99.90
21582;DHT22;10952;50.836;4.348;2023-05-10T04:43:40;14.30;99.90
21582;DHT22;10952;50.836;4.348;2023-05-10T04:46:06;14.10;99.90
21582;DHT22;10952;50.836;4.348;2023-05-10T04:48:32;14.20;99.90
21582;DHT22;10952;50.836;4.348;2023-05-10T04:50:58;14.10;99.90
21582;DHT22;10952;50.836;4.348;2023-05-10T04:53:24;14.00;99.90
21582;DHT22;10952;50.836;4.348;2023-05-10T04:55:50;14.10;99.90
21582;DHT22;10952;50.836;4.348;2023-05-10T04:58:16;14.00;99.90
21582;DHT22;10952;50.836;4.348;2023-05-10T05:00:41;14.20;99.90
21582;DHT22;10952;50.836;4.348;2023-05-10T05:03:07;14.20;99.90
21582;DHT22;10952;50.836;4.348;2023-05-10T05:05:33;14.20;99.90
21582;DHT22;10952;50.836;4.348;2023-05-10T05:07:59;14.10;99.90
21582;DHT22;10952;50.836;4.348;2023-05-10T05:10:24;14.20;99.90
21582;DHT22;10952;50.836;4.348;2023-05-10T05:12:50;14.20;99.90
21582;DHT22;10952;50.836;4.348;2023-05-10T05:15:16;14.20;99.90
21582;DHT22;10952;50.836;4.348;2023-05-10T05:17:42;14.20;99.90
21582;DHT22;10952;50.836;4.348;2023-05-10T05:20:09;14.00;99.90
21582;DHT22;10952;50.836;4.348;2023-05-10T05:22:36;13.80;99.90
21582;DHT22;10952;50.836;4.348;2023-05-10T05:25:02;13.80;99.90
21582;DHT22;10952;50.836;4.348;2023-05-10T05:27:28;13.80;99.90
21582;DHT22;10952;50.836;4.348;2023-05-10T05:29:55;13.70;99.90
21582;DHT22;10952;50.836;4.348;2023-05-10T05:32:21;13.50;99.90
21582;DHT22;10952;50.836;4.348;2023-05-10T05:34:47;13.50;99.90
21582;DHT22;10952;50.836;4.348;2023-05-10T05:37:17;13.40;99.90
21582;DHT22;10952;50.836;4.348;2023-05-10T05:39:45;13.30;99.90
21582;DHT22;10952;50.836;4.348;2023-05-10T05:42:11;13.40;99.90
21582;DHT22;10952;50.836;4.348;2023-05-10T05:44:37;13.40;99.90
21582;DHT22;10952;50.836;4.348;2023-05-10T05:47:02;13.60;99.90
21582;DHT22;10952;50.836;4.348;2023-05-10T05:49:28;13.50;99.90
21582;DHT22;10952;50.836;4.348;2023-05-10T05:51:57;13.50;99.90
21582;DHT22;10952;50.836;4.348;2023-05-10T05:54:24;13.60;99.90
21582;DHT22;10952;50.836;4.348;2023-05-10T05:56:50;13.50;99.90
21582;DHT22;10952;50.836;4.348;2023-05-10T05:59:15;13.60;99.90
21582;DHT22;10952;50.836;4.348;2023-05-10T06:01:41;13.60;99.90
21582;DHT22;10952;50.836;4.348;2023-05-10T06:04:07;13.60;99.90
21582;DHT22;10952;50.836;4.348;2023-05-10T06:06:32;13.60;99.90
21582;DHT22;10952;50.836;4.348;2023-05-10T06:08:58;13.60;99.90
21582;DHT22;10952;50.836;4.348;2023-05-10T06:11:24;13.70;99.90
21582;DHT22;10952;50.836;4.348;2023-05-10T06:13:50;13.70;99.90
21582;DHT22;10952;50.836;4.348;2023-05-10T06:16:16;13.60;99.90
21582;DHT22;10952;50.836;4.348;2023-05-10T06:18:43;13.60;99.90
21582;DHT22;10952;50.836;4.348;2023-05-10T06:21:08;13.60;99.90
21582;DHT22;10952;50.836;4.348;2023-05-10T06:23:34;13.50;99.90
21582;DHT22;10952;50.836;4.348;2023-05-10T06:26:01;13.50;99.90
21582;DHT22;10952;50.836;4.348;2023-05-10T06:28:26;13.40;99.90
21582;DHT22;10952;50.836;4.348;2023-05-10T06:30:52;13.40;99.90
21582;DHT22;10952;50.836;4.348;2023-05-10T06:33:17;13.50;99.90
21582;DHT22;10952;50.836;4.348;2023-05-10T06:35:43;13.50;99.90
21582;DHT22;10952;50.836;4.348;2023-05-10T06:38:09;13.50;99.90
21582;DHT22;10952;50.836;4.348;2023-05-10T06:40:34;13.60;99.90
21582;DHT22;10952;50.836;4.348;2023-05-10T06:43:01;13.70;99.90
21582;DHT22;10952;50.836;4.348;2023-05-10T06:45:27;13.70;99.90
21582;DHT22;10952;50.836;4.348;2023-05-10T06:47:52;13.70;99.90
21582;DHT22;10952;50.836;4.348;2023-05-10T06:50:18;13.80;99.90
21582;DHT22;10952;50.836;4.348;2023-05-10T06:52:44;13.80;99.90
21582;DHT22;10952;50.836;4.348;2023-05-10T06:55:10;13.90;99.90
21582;DHT22;10952;50.836;4.348;2023-05-10T06:57:36;14.00;99.90
21582;DHT22;10952;50.836;4.348;2023-05-10T07:00:03;14.00;99.90
21582;DHT22;10952;50.836;4.348;2023-05-10T07:02:30;14.00;99.90
21582;DHT22;10952;50.836;4.348;2023-05-10T07:04:56;14.20;99.90
21582;DHT22;10952;50.836;4.348;2023-05-10T07:07:22;14.20;99.90
21582;DHT22;10952;50.836;4.348;2023-05-10T07:09:48;14.20;99.90
21582;DHT22;10952;50.836;4.348;2023-05-10T07:12:15;14.30;99.90
21582;DHT22;10952;50.836;4.348;2023-05-10T07:14:42;14.20;99.90
21582;DHT22;10952;50.836;4.348;2023-05-10T07:17:07;14.20;99.90
21582;DHT22;10952;50.836;4.348;2023-05-10T07:19:33;14.20;99.90
21582;DHT22;10952;50.836;4.348;2023-05-10T07:21:59;14.30;99.90
21582;DHT22;10952;50.836;4.348;2023-05-10T07:24:24;14.20;99.90
21582;DHT22;10952;50.836;4.348;2023-05-10T07:26:50;14.30;99.90
21582;DHT22;10952;50.836;4.348;2023-05-10T07:29:16;14.20;99.90
21582;DHT22;10952;50.836;4.348;2023-05-10T07:31:42;14.10;99.90
21582;DHT22;10952;50.836;4.348;2023-05-10T07:34:08;13.90;99.90
21582;DHT22;10952;50.836;4.348;2023-05-10T07:36:34;14.00;99.90
21582;DHT22;10952;50.836;4.348;2023-05-10T07:39:00;14.10;99.90
21582;DHT22;10952;50.836;4.348;2023-05-10T07:41:26;14.10;99.90
21582;DHT22;10952;50.836;4.348;2023-05-10T07:43:52;14.00;99.90
21582;DHT22;10952;50.836;4.348;2023-05-10T07:46:18;13.90;99.90
21582;DHT22;10952;50.836;4.348;2023-05-10T07:48:45;14.00;99.90
21582;DHT22;10952;50.836;4.348;2023-05-10T07:51:10;14.10;99.90
21582;DHT22;10952;50.836;4.348;2023-05-10T07:53:37;14.20;99.90
21582;DHT22;10952;50.836;4.348;2023-05-10T07:56:21;14.30;99.90
21582;DHT22;10952;50.836;4.348;2023-05-10T07:58:47;14.40;99.90
21582;DHT22;10952;50.836;4.348;2023-05-10T08:01:12;14.40;99.90
21582;DHT22;10952;50.836;4.348;2023-05-10T08:03:38;14.50;99.90
21582;DHT22;10952;50.836;4.348;2023-05-10T08:06:04;14.50;99.90
21582;DHT22;10952;50.836;4.348;2023-05-10T08:08:30;14.60;99.90
21582;DHT22;10952;50.836;4.348;2023-05-10T08:10:55;14.60;99.90
21582;DHT22;10952;50.836;4.348;2023-05-10T08:13:21;14.70;99.90
21582;DHT22;10952;50.836;4.348;2023-05-10T08:15:47;14.90;99.90
21582;DHT22;10952;50.836;4.348;2023-05-10T08:18:12;15.00;99.90
21582;DHT22;10952;50.836;4.348;2023-05-10T08:20:38;15.10;99.90
21582;DHT22;10952;50.836;4.348;2023-05-10T08:23:04;15.00;99.90
21582;DHT22;10952;50.836;4.348;2023-05-10T08:25:29;14.90;99.90
21582;DHT22;10952;50.836;4.348;2023-05-10T08:27:55;15.00;99.90
21582;DHT22;10952;50.836;4.348;2023-05-10T08:30:21;15.00;99.90
21582;DHT22;10952;50.836;4.348;2023-05-10T08:32:46;14.90;99.90
21582;DHT22;10952;50.836;4.348;2023-05-10T08:35:12;14.90;99.90
21582;DHT22;10952;50.836;4.348;2023-05-10T08:37:38;15.00;99.90
21582;DHT22;10952;50.836;4.348;2023-05-10T08:40:04;15.00;99.90
21582;DHT22;10952;50.836;4.348;2023-05-10T08:42:30;15.00;99.90
21582;DHT22;10952;50.836;4.348;2023-05-10T08:45:00;15.00;99.90
21582;DHT22;10952;50.836;4.348;2023-05-10T08:47:27;15.10;99.90
21582;DHT22;10952;50.836;4.348;2023-05-10T08:49:54;15.30;99.90
21582;DHT22;10952;50.836;4.348;2023-05-10T08:52:20;15.30;99.90
21582;DHT22;10952;50.836;4.348;2023-05-10T08:54:47;15.40;99.90
21582;DHT22;10952;50.836;4.348;2023-05-10T08:57:13;15.30;99.90
21582;DHT22;10952;50.836;4.348;2023-05-10T08:59:39;15.30;99.90
21582;DHT22;10952;50.836;4.348;2023-05-10T09:02:05;15.30;99.90
21582;DHT22;10952;50.836;4.348;2023-05-10T09:04:31;15.30;99.90
21582;DHT22;10952;50.836;4.348;2023-05-10T09:06:57;15.20;99.90
21582;DHT22;10952;50.836;4.348;2023-05-10T09:09:24;15.20;99.90
21582;DHT22;10952;50.836;4.348;2023-05-10T09:11:51;15.00;99.90
21582;DHT22;10952;50.836;4.348;2023-05-10T09:14:17;15.10;99.90
21582;DHT22;10952;50.836;4.348;2023-05-10T09:16:44;15.10;99.90
21582;DHT22;10952;50.836;4.348;2023-05-10T09:19:10;15.10;99.90
21582;DHT22;10952;50.836;4.348;2023-05-10T09:21:36;14.80;99.90
21582;DHT22;10952;50.836;4.348;2023-05-10T09:24:07;14.80;99.90
21582;DHT22;10952;50.836;4.348;2023-05-10T09:26:33;14.70;99.90
21582;DHT22;10952;50.836;4.348;2023-05-10T09:29:00;14.70;99.90
21582;DHT22;10952;50.836;4.348;2023-05-10T09:31:47;14.70;99.90
21582;DHT22;10952;50.836;4.348;2023-05-10T09:34:21;14.70;99.90
21582;DHT22;10952;50.836;4.348;2023-05-10T09:36:52;14.80;99.90
21582;DHT22;10952;50.836;4.348;2023-05-10T09:39:18;14.80;99.90
21582;DHT22;10952;50.836;4.348;2023-05-10T09:41:44;14.80;99.90
21582;DHT22;10952;50.836;4.348;2023-05-10T09:44:10;14.90;99.90
21582;DHT22;10952;50.836;4.348;2023-05-10T09:46:35;14.90;99.90
21582;DHT22;10952;50.836;4.348;2023-05-10T09:49:02;14.90;99.90
21582;DHT22;10952;50.836;4.348;2023-05-10T09:51:27;14.80;99.90
21582;DHT22;10952;50.836;4.348;2023-05-10T09:54:13;14.70;99.90
21582;DHT22;10952;50.836;4.348;2023-05-10T09:56:39;14.70;99.90
21582;DHT22;10952;50.836;4.348;2023-05-10T09:59:07;14.70;99.90
21582;DHT22;10952;50.836;4.348;2023-05-10T10:01:33;14.70;99.90
21582;DHT22;10952;50.836;4.348;2023-05-10T10:04:03;14.70;99.90
21582;DHT22;10952;50.836;4.348;2023-05-10T10:06:38;14.60;99.90
21582;DHT22;10952;50.836;4.348;2023-05-10T10:09:04;14.70;99.90
21582;DHT22;10952;50.836;4.348;2023-05-10T10:11:30;14.80;99.90
21582;DHT22;10952;50.836;4.348;2023-05-10T10:13:56;14.90;99.90
21582;DHT22;10952;50.836;4.348;2023-05-10T10:16:22;14.90;99.90
21582;DHT22;10952;50.836;4.348;2023-05-10T10:18:48;15.00;99.90
21582;DHT22;10952;50.836;4.348;2023-05-10T10:21:15;15.00;99.90
21582;DHT22;10952;50.836;4.348;2023-05-10T10:23:42;15.10;99.90
21582;DHT22;10952;50.836;4.348;2023-05-10T10:26:09;15.10;99.90
21582;DHT22;10952;50.836;4.348;2023-05-10T10:31:46;15.20;99.90
21582;DHT22;10952;50.836;4.348;2023-05-10T10:34:25;15.10;99.90
21582;DHT22;10952;50.836;4.348;2023-05-10T10:36:52;15.10;99.90
21582;DHT22;10952;50.836;4.348;2023-05-10T10:39:20;15.30;99.90
21582;DHT22;10952;50.836;4.348;2023-05-10T10:41:53;15.30;99.90
21582;DHT22;10952;50.836;4.348;2023-05-10T10:52:27;15.60;99.90
21582;DHT22;10952;50.836;4.348;2023-05-10T10:54:59;15.60;99.90
21582;DHT22;10952;50.836;4.348;2023-05-10T10:57:27;15.70;99.90
21582;DHT22;10952;50.836;4.348;2023-05-10T11:08:13;16.10;99.90
21582;DHT22;10952;50.836;4.348;2023-05-10T11:10:48;16.10;99.90
21582;DHT22;10952;50.836;4.348;2023-05-10T11:13:14;15.90;99.90
21582;DHT22;10952;50.836;4.348;2023-05-10T11:15:40;15.90;99.90
21582;DHT22;10952;50.836;4.348;2023-05-10T11:20:43;15.90;99.90
21582;DHT22;10952;50.836;4.348;2023-05-10T11:23:13;16.00;99.90
21582;DHT22;10952;50.836;4.348;2023-05-10T11:25:42;16.10;99.90
21582;DHT22;10952;50.836;4.348;2023-05-10T11:28:09;16.20;99.90
21582;DHT22;10952;50.836;4.348;2023-05-10T11:30:36;16.40;99.90
21582;DHT22;10952;50.836;4.348;2023-05-10T11:33:03;16.60;99.90
21582;DHT22;10952;50.836;4.348;2023-05-10T11:35:28;16.80;99.90
21582;DHT22;10952;50.836;4.348;2023-05-10T11:37:54;16.90;99.90
21582;DHT22;10952;50.836;4.348;2023-05-10T11:40:22;17.10;99.90
21582;DHT22;10952;50.836;4.348;2023-05-10T11:42:51;17.50;99.90
21582;DHT22;10952;50.836;4.348;2023-05-10T11:45:17;17.50;99.90
21582;DHT22;10952;50.836;4.348;2023-05-10T11:47:43;17.70;99.90
21582;DHT22;10952;50.836;4.348;2023-05-10T11:50:10;17.70;99.90
21582;DHT22;10952;50.836;4.348;2023-05-10T11:52:36;17.40;99.90
21582;DHT22;10952;50.836;4.348;2023-05-10T11:55:05;17.20;99.90
21582;DHT22;10952;50.836;4.348;2023-05-10T11:57:31;17.10;99.90
21582;DHT22;10952;50.836;4.348;2023-05-10T11:59:57;17.40;99.90
21582;DHT22;10952;50.836;4.348;2023-05-10T12:02:23;17.70;99.90
21582;DHT22;10952;50.836;4.348;2023-05-10T12:04:50;17.90;99.90
21582;DHT22;10952;50.836;4.348;2023-05-10T12:07:16;18.10;99.90
21582;DHT22;10952;50.836;4.348;2023-05-10T12:09:43;18.10;99.90
21582;DHT22;10952;50.836;4.348;2023-05-10T12:12:15;18.30;99.90
21582;DHT22;10952;50.836;4.348;2023-05-10T12:14:41;18.10;99.90
21582;DHT22;10952;50.836;4.348;2023-05-10T12:17:11;18.10;99.90
21582;DHT22;10952;50.836;4.348;2023-05-10T12:19:38;18.20;99.90
21582;DHT22;10952;50.836;4.348;2023-05-10T12:22:07;18.10;99.90
21582;DHT22;10952;50.836;4.348;2023-05-10T12:24:36;18.20;99.90
21582;DHT22;10952;50.836;4.348;2023-05-10T12:27:08;18.00;99.90
21582;DHT22;10952;50.836;4.348;2023-05-10T12:29:34;18.30;99.90
21582;DHT22;10952;50.836;4.348;2023-05-10T12:32:00;18.50;99.90
21582;DHT22;10952;50.836;4.348;2023-05-10T12:34:33;18.90;99.90
21582;DHT22;10952;50.836;4.348;2023-05-10T12:37:00;19.10;99.90
21582;DHT22;10952;50.836;4.348;2023-05-10T12:39:40;19.00;99.90
21582;DHT22;10952;50.836;4.348;2023-05-10T12:42:06;19.30;99.90
21582;DHT22;10952;50.836;4.348;2023-05-10T12:44:32;19.40;99.90
21582;DHT22;10952;50.836;4.348;2023-05-10T12:46:58;19.30;99.90
21582;DHT22;10952;50.836;4.348;2023-05-10T12:49:23;19.20;99.90
21582;DHT22;10952;50.836;4.348;2023-05-10T12:51:49;19.40;99.90
21582;DHT22;10952;50.836;4.348;2023-05-10T12:54:14;19.40;99.90
21582;DHT22;10952;50.836;4.348;2023-05-10T12:56:40;19.30;99.90
21582;DHT22;10952;50.836;4.348;2023-05-10T12:59:08;19.60;99.90
21582;DHT22;10952;50.836;4.348;2023-05-10T13:01:33;19.50;99.90
21582;DHT22;10952;50.836;4.348;2023-05-10T13:03:59;19.70;99.90
21582;DHT22;10952;50.836;4.348;2023-05-10T13:06:25;19.70;99.90
21582;DHT22;10952;50.836;4.348;2023-05-10T13:08:51;19.70;99.90
21582;DHT22;10952;50.836;4.348;2023-05-10T13:11:17;19.80;99.90
21582;DHT22;10952;50.836;4.348;2023-05-10T13:13:45;19.70;99.90
21582;DHT22;10952;50.836;4.348;2023-05-10T13:16:10;19.30;99.90
21582;DHT22;10952;50.836;4.348;2023-05-10T13:18:36;19.10;99.90
21582;DHT22;10952;50.836;4.348;2023-05-10T13:21:02;19.30;99.90
21582;DHT22;10952;50.836;4.348;2023-05-10T13:23:29;19.20;99.90
21582;DHT22;10952;50.836;4.348;2023-05-10T13:25:55;18.90;99.90
21582;DHT22;10952;50.836;4.348;2023-05-10T13:28:20;19.20;99.90
21582;DHT22;10952;50.836;4.348;2023-05-10T13:30:46;19.20;99.90
21582;DHT22;10952;50.836;4.348;2023-05-10T13:33:11;19.30;99.90
21582;DHT22;10952;50.836;4.348;2023-05-10T13:35:37;19.30;99.90
21582;DHT22;10952;50.836;4.348;2023-05-10T13:38:03;19.50;99.90
21582;DHT22;10952;50.836;4.348;2023-05-10T13:40:28;19.50;99.90
21582;DHT22;10952;50.836;4.348;2023-05-10T13:42:54;19.50;99.90
21582;DHT22;10952;50.836;4.348;2023-05-10T13:45:20;19.80;99.90
21582;DHT22;10952;50.836;4.348;2023-05-10T13:47:46;19.50;99.90
21582;DHT22;10952;50.836;4.348;2023-05-10T13:50:11;19.50;99.90
21582;DHT22;10952;50.836;4.348;2023-05-10T13:52:37;19.50;99.90
21582;DHT22;10952;50.836;4.348;2023-05-10T13:55:03;19.50;99.90
21582;DHT22;10952;50.836;4.348;2023-05-10T13:57:28;19.60;99.90
21582;DHT22;10952;50.836;4.348;2023-05-10T13:59:55;19.40;99.90
21582;DHT22;10952;50.836;4.348;2023-05-10T14:02:22;19.00;99.90
21582;DHT22;10952;50.836;4.348;2023-05-10T14:04:48;18.90;99.90
21582;DHT22;10952;50.836;4.348;2023-05-10T14:07:14;18.80;99.90
21582;DHT22;10952;50.836;4.348;2023-05-10T14:09:39;18.60;99.90
21582;DHT22;10952;50.836;4.348;2023-05-10T14:12:05;18.60;99.90
21582;DHT22;10952;50.836;4.348;2023-05-10T14:14:31;18.60;99.90
21582;DHT22;10952;50.836;4.348;2023-05-10T14:16:56;18.70;99.90
21582;DHT22;10952;50.836;4.348;2023-05-10T14:19:22;19.00;99.90
21582;DHT22;10952;50.836;4.348;2023-05-10T14:21:48;19.10;99.90
21582;DHT22;10952;50.836;4.348;2023-05-10T14:24:13;19.00;99.90
21582;DHT22;10952;50.836;4.348;2023-05-10T14:26:40;19.20;99.90
21582;DHT22;10952;50.836;4.348;2023-05-10T14:29:05;19.30;99.90
21582;DHT22;10952;50.836;4.348;2023-05-10T14:31:31;19.00;99.90
21582;DHT22;10952;50.836;4.348;2023-05-10T14:33:57;19.00;99.90
21582;DHT22;10952;50.836;4.348;2023-05-10T14:36:23;19.00;99.90
21582;DHT22;10952;50.836;4.348;2023-05-10T14:38:48;19.00;99.90
21582;DHT22;10952;50.836;4.348;2023-05-10T14:41:15;19.10;99.90
21582;DHT22;10952;50.836;4.348;2023-05-10T14:43:43;19.00;99.90
21582;DHT22;10952;50.836;4.348;2023-05-10T14:46:08;19.00;99.90
21582;DHT22;10952;50.836;4.348;2023-05-10T14:48:34;19.00;99.90
21582;DHT22;10952;50.836;4.348;2023-05-10T14:51:00;18.70;99.90
21582;DHT22;10952;50.836;4.348;2023-05-10T14:53:26;18.50;99.90
21582;DHT22;10952;50.836;4.348;2023-05-10T14:55:51;18.30;99.90
21582;DHT22;10952;50.836;4.348;2023-05-10T14:58:17;18.30;99.90
21582;DHT22;10952;50.836;4.348;2023-05-10T15:00:43;18.00;99.90
21582;DHT22;10952;50.836;4.348;2023-05-10T15:03:09;17.60;99.90
21582;DHT22;10952;50.836;4.348;2023-05-10T15:05:34;17.30;99.90
21582;DHT22;10952;50.836;4.348;2023-05-10T15:08:02;17.10;99.90
21582;DHT22;10952;50.836;4.348;2023-05-10T15:10:28;16.80;99.90
21582;DHT22;10952;50.836;4.348;2023-05-10T15:12:53;16.70;99.90
21582;DHT22;10952;50.836;4.348;2023-05-10T15:15:19;16.50;99.90
21582;DHT22;10952;50.836;4.348;2023-05-10T15:17:45;16.30;99.90
21582;DHT22;10952;50.836;4.348;2023-05-10T15:20:11;16.10;99.90
21582;DHT22;10952;50.836;4.348;2023-05-10T15:22:37;16.00;99.90
21582;DHT22;10952;50.836;4.348;2023-05-10T15:25:03;16.00;99.90
21582;DHT22;10952;50.836;4.348;2023-05-10T15:27:29;16.10;99.90
21582;DHT22;10952;50.836;4.348;2023-05-10T15:29:55;16.10;99.90
21582;DHT22;10952;50.836;4.348;2023-05-10T15:32:21;16.00;99.90
21582;DHT22;10952;50.836;4.348;2023-05-10T15:34:46;16.00;99.90
21582;DHT22;10952;50.836;4.348;2023-05-10T15:37:12;16.10;99.90
21582;DHT22;10952;50.836;4.348;2023-05-10T15:39:38;16.10;99.90
21582;DHT22;10952;50.836;4.348;2023-05-10T15:42:04;16.10;99.90
21582;DHT22;10952;50.836;4.348;2023-05-10T15:44:29;16.10;99.90
21582;DHT22;10952;50.836;4.348;2023-05-10T15:46:55;16.40;99.90
21582;DHT22;10952;50.836;4.348;2023-05-10T15:49:21;16.50;99.90
21582;DHT22;10952;50.836;4.348;2023-05-10T15:51:46;16.60;99.90
21582;DHT22;10952;50.836;4.348;2023-05-10T15:54:12;16.90;99.90
21582;DHT22;10952;50.836;4.348;2023-05-10T15:56:38;17.00;99.90
21582;DHT22;10952;50.836;4.348;2023-05-10T15:59:04;17.00;99.90
21582;DHT22;10952;50.836;4.348;2023-05-10T16:01:30;17.10;99.90
21582;DHT22;10952;50.836;4.348;2023-05-10T16:03:56;17.30;99.90
21582;DHT22;10952;50.836;4.348;2023-05-10T16:06:23;17.50;99.90
21582;DHT22;10952;50.836;4.348;2023-05-10T16:08:48;17.70;99.90
21582;DHT22;10952;50.836;4.348;2023-05-10T16:11:14;17.70;99.90
21582;DHT22;10952;50.836;4.348;2023-05-10T16:13:40;17.60;99.90